Time;durP1;ratioP1;P1;durP2;ratioP2;P2;SDS_P1;SDS_P2;PMS_P1;PMS_P2;Temp;Humidity;BMP_temperature;BMP_pressure;BME280_temperature;BME280_humidity;BME280_pressure;Samples;Min_cycle;Max_cycle;Signal;HPM_P1;HPM_P2
2021/05/17 00:02:06;;;;;;;24.45;14.13;;;;;;;8.17;82.76;98987.75;8675861;33;20429;-71
2021/05/17 00:07:11;;;;;;;28.23;14.88;;;;;;;8.07;83.38;98986.06;8733536;32;20471;-71
2021/05/17 00:12:16;;;;;;;26.45;14.10;;;;;;;8.19;82.69;98971.53;8721291;32;20395;-71
2021/05/17 00:17:19;;;;;;;23.98;12.60;;;;;;;8.13;82.49;98972.13;8729154;32;20157;-72
2021/05/17 00:22:22;;;;;;;18.17;11.43;;;;;;;8.13;82.39;98970.28;8735422;32;20674;-72
2021/05/17 00:27:26;;;;;;;25.67;13.10;;;;;;;8.18;82.20;98969.84;8735744;32;20146;-72
2021/05/17 00:32:28;;;;;;;19.42;11.82;;;;;;;8.20;82.01;98972.38;8734253;32;20177;-72
2021/05/17 00:37:32;;;;;;;21.08;11.40;;;;;;;8.25;82.04;98973.63;8723010;32;20442;-71
2021/05/17 00:42:37;;;;;;;19.77;11.13;;;;;;;8.22;81.87;98968.56;8698351;32;20507;-72
2021/05/17 00:47:41;;;;;;;19.90;10.68;;;;;;;8.21;81.94;98969.56;8690562;32;20230;-72
2021/05/17 00:52:46;;;;;;;18.60;10.70;;;;;;;8.21;82.18;98968.72;8713305;32;20174;-71
2021/05/17 00:57:51;;;;;;;15.93;9.63;;;;;;;8.26;81.67;98963.81;8724537;32;20146;-72
2021/05/17 01:02:55;;;;;;;18.83;9.85;;;;;;;8.22;81.79;98967.72;8652433;32;20513;-72
2021/05/17 01:08:14;;;;;;;19.70;10.23;;;;;;;8.24;82.25;98963.09;8718700;32;20208;-72
2021/05/17 01:13:19;;;;;;;17.23;9.82;;;;;;;8.21;82.03;98961.53;8691741;32;21330;-72
2021/05/17 01:18:23;;;;;;;19.63;10.05;;;;;;;8.22;82.17;98957.03;8717967;32;20447;-71
2021/05/17 01:28:56;;;;;;;20.23;10.75;;;;;;;8.14;82.87;98971.97;8703158;32;20644;-72
2021/05/17 01:34:00;;;;;;;19.20;10.63;;;;;;;8.10;82.54;98965.22;8712619;32;20377;-72
2021/05/17 01:39:07;;;;;;;20.42;10.50;;;;;;;8.00;82.66;98975.06;8686825;32;20133;-71
2021/05/17 01:44:12;;;;;;;16.50;9.80;;;;;;;7.83;81.91;98975.81;8713751;32;20411;-72
2021/05/17 01:49:18;;;;;;;15.85;9.75;;;;;;;7.75;81.88;98973.00;8662088;32;20458;-72
2021/05/17 01:54:31;;;;;;;16.38;8.77;;;;;;;7.67;81.73;98979.03;8657819;32;20438;-71
2021/05/17 01:59:35;;;;;;;12.63;8.02;;;;;;;7.68;81.91;98981.56;8673518;32;20618;-72
2021/05/17 02:04:39;;;;;;;13.45;7.32;;;;;;;7.76;81.63;98978.16;8697730;32;20146;-71
2021/05/17 02:09:43;;;;;;;15.60;7.30;;;;;;;7.65;81.51;98989.00;8723070;32;20549;-72
2021/05/17 02:14:52;;;;;;;10.80;6.90;;;;;;;7.73;81.20;98990.03;8707009;32;20555;-71
2021/05/17 02:19:56;;;;;;;9.52;5.80;;;;;;;7.72;81.50;98988.31;8709430;32;20407;-72
2021/05/17 02:25:00;;;;;;;10.13;5.97;;;;;;;7.70;80.99;98984.09;8734370;32;20408;-71
2021/05/17 02:30:06;;;;;;;9.80;6.20;;;;;;;7.71;80.99;98988.47;8705046;32;20541;-72
2021/05/17 02:35:12;;;;;;;10.38;5.60;;;;;;;7.57;80.90;98987.06;8696491;32;22054;-71
2021/05/17 02:40:18;;;;;;;10.25;6.25;;;;;;;7.57;80.63;98987.06;8720636;32;20496;-72
2021/05/17 02:45:23;;;;;;;14.40;6.63;;;;;;;7.52;80.72;98989.28;8695577;32;20163;-72
2021/05/17 02:50:35;;;;;;;8.70;5.45;;;;;;;7.52;80.97;99002.66;8690243;32;20430;-71
2021/05/17 02:55:40;;;;;;;7.35;5.13;;;;;;;7.48;80.50;99007.41;8714914;32;20142;-72
2021/05/17 03:00:51;;;;;;;8.35;5.35;;;;;;;7.57;80.06;99005.75;8688864;32;20126;-72
2021/05/17 03:06:02;;;;;;;9.93;6.32;;;;;;;7.63;80.28;98999.84;8689771;32;20427;-71
2021/05/17 03:11:10;;;;;;;11.20;5.88;;;;;;;7.71;80.47;99000.00;8688088;32;21045;-72
2021/05/17 03:16:15;;;;;;;9.68;6.15;;;;;;;7.76;81.06;99015.59;8688403;32;20980;-71
2021/05/17 03:21:20;;;;;;;10.55;6.00;;;;;;;7.72;81.27;99011.53;8689073;32;22167;-71
2021/05/17 03:26:26;;;;;;;11.20;5.70;;;;;;;7.58;81.12;99014.63;8715030;32;20875;-72
2021/05/17 03:31:29;;;;;;;8.82;5.68;;;;;;;7.54;81.24;99019.38;8689430;32;20944;-71
2021/05/17 03:36:32;;;;;;;7.97;5.38;;;;;;;7.66;81.54;99031.63;8717973;32;20445;-72
2021/05/17 03:41:35;;;;;;;7.60;5.32;;;;;;;7.73;81.89;99037.25;8686749;32;20228;-72
2021/05/17 03:46:38;;;;;;;9.23;5.85;;;;;;;7.73;81.46;99034.59;8711131;32;20491;-71
2021/05/17 03:51:40;;;;;;;8.43;5.90;;;;;;;7.75;81.57;99039.81;8709288;32;20178;-72
2021/05/17 03:56:44;;;;;;;10.25;5.38;;;;;;;7.75;81.87;99037.97;8711344;32;21064;-71
2021/05/17 04:01:47;;;;;;;10.50;5.05;;;;;;;7.81;82.14;99034.75;8714509;32;20200;-72
2021/05/17 04:06:56;;;;;;;8.48;4.38;;;;;;;7.85;82.14;99041.50;8717105;32;20638;-72
2021/05/17 04:17:21;;;;;;;6.80;4.57;;;;;;;8.02;81.69;99047.16;8709773;32;20129;-72
2021/05/17 04:22:24;;;;;;;7.47;4.85;;;;;;;8.16;82.36;99068.94;8701970;32;20137;-72
2021/05/17 04:27:27;;;;;;;5.30;4.13;;;;;;;8.23;81.79;99058.56;8705990;32;20259;-72
2021/05/17 04:32:30;;;;;;;7.03;4.40;;;;;;;8.28;81.78;99056.31;8705010;32;21079;-72
2021/05/17 04:37:32;;;;;;;6.35;4.50;;;;;;;8.38;82.23;99064.31;8706613;32;20181;-72
2021/05/17 04:42:36;;;;;;;8.60;4.32;;;;;;;8.44;82.07;99062.88;8704999;32;20483;-72
2021/05/17 04:47:39;;;;;;;5.70;4.10;;;;;;;8.56;82.50;99057.28;8704352;32;20418;-72
2021/05/17 04:52:42;;;;;;;6.45;4.25;;;;;;;8.56;81.39;99061.78;8706149;32;20472;-72
2021/05/17 04:57:45;;;;;;;6.97;3.88;;;;;;;8.41;80.74;99064.00;8706284;32;20177;-72
2021/05/17 05:02:48;;;;;;;5.38;3.78;;;;;;;8.29;79.64;99066.00;8707533;32;20398;-72
2021/05/17 05:07:51;;;;;;;5.10;3.28;;;;;;;8.32;79.06;99073.75;8710741;32;20409;-72
2021/05/17 05:12:54;;;;;;;6.28;3.58;;;;;;;8.45;79.02;99075.25;8687545;32;20785;-72
2021/05/17 05:17:57;;;;;;;7.22;3.65;;;;;;;8.47;78.75;99086.72;8712716;32;20404;-72
2021/05/17 05:23:01;;;;;;;7.63;3.92;;;;;;;8.53;79.30;99078.09;8716889;32;20177;-72
2021/05/17 05:28:05;;;;;;;7.90;3.92;;;;;;;8.46;78.37;99088.56;8713718;32;20589;-72
2021/05/17 05:33:11;;;;;;;5.78;3.42;;;;;;;8.59;78.13;99086.44;8711841;32;20572;-72
2021/05/17 05:38:14;;;;;;;5.95;3.30;;;;;;;8.67;77.31;99096.44;8707996;32;20824;-72
2021/05/17 05:43:18;;;;;;;7.07;3.97;;;;;;;8.63;77.20;99096.84;8706843;32;20907;-72
2021/05/17 05:48:21;;;;;;;9.30;3.95;;;;;;;8.80;77.49;99099.66;8704893;32;20835;-72
2021/05/17 05:53:23;;;;;;;4.93;3.80;;;;;;;8.96;77.22;99098.19;8703192;32;20129;-72
2021/05/17 05:58:30;;;;;;;6.60;4.05;;;;;;;9.54;77.22;99094.41;8702558;32;20420;-72
2021/05/17 06:03:33;;;;;;;5.88;3.90;;;;;;;9.50;75.54;99094.72;8707524;32;21066;-72
2021/05/17 06:08:37;;;;;;;4.65;3.50;;;;;;;9.49;75.89;99105.63;8709789;32;20184;-72
2021/05/17 06:13:44;;;;;;;5.18;3.47;;;;;;;9.38;75.94;99113.81;8680163;32;22245;-72
2021/05/17 06:18:47;;;;;;;13.65;3.60;;;;;;;9.40;74.95;99103.78;8707830;32;20157;-72
2021/05/17 06:23:50;;;;;;;5.10;3.58;;;;;;;9.67;75.16;99103.81;8710118;32;20385;-72
2021/05/17 06:28:55;;;;;;;5.07;3.80;;;;;;;10.16;75.45;99108.88;8685278;32;20446;-71
2021/05/17 06:33:58;;;;;;;5.13;3.58;;;;;;;10.10;73.71;99112.19;8710241;32;20461;-72
2021/05/17 06:39:02;;;;;;;5.25;3.70;;;;;;;10.22;74.72;99110.13;8708493;32;20176;-72
2021/05/17 06:44:09;;;;;;;5.97;3.87;;;;;;;10.60;74.41;99111.63;8709110;32;20505;-72
2021/05/17 06:49:12;;;;;;;8.00;3.90;;;;;;;10.42;71.23;99108.94;8720309;32;20439;-72
2021/05/17 06:54:19;;;;;;;4.60;3.50;;;;;;;10.62;72.22;99120.38;8722134;32;20259;-72
2021/05/17 06:59:24;;;;;;;5.82;4.13;;;;;;;10.78;71.15;99125.88;8722249;32;20418;-73
2021/05/17 07:04:30;;;;;;;7.45;5.20;;;;;;;10.37;72.22;99135.44;8732985;32;20408;-72
2021/05/17 07:14:59;;;;;;;7.63;5.35;;;;;;;10.31;73.81;99142.25;8736690;32;20614;-71
2021/05/17 07:20:01;;;;;;;7.32;5.57;;;;;;;10.83;72.29;99128.94;8725078;32;20210;-74
2021/05/17 07:25:06;;;;;;;15.63;5.47;;;;;;;10.97;69.64;99145.47;8739477;32;20153;-71
2021/05/17 07:30:12;;;;;;;7.00;5.07;;;;;;;11.20;69.31;99143.16;8737997;32;20182;-72
2021/05/17 07:35:14;;;;;;;7.68;5.03;;;;;;;11.14;69.30;99146.50;8712145;32;20214;-73
2021/05/17 07:40:17;;;;;;;8.13;5.40;;;;;;;10.81;71.04;99149.75;8737422;32;20541;-72
2021/05/17 07:45:21;;;;;;;9.38;6.65;;;;;;;11.18;70.84;99151.38;8727838;32;20646;-73
2021/05/17 07:50:23;;;;;;;10.07;6.65;;;;;;;11.42;69.39;99147.16;8736068;32;20569;-73
2021/05/17 07:55:26;;;;;;;10.90;7.25;;;;;;;11.05;72.37;99151.78;8735092;32;20287;-73
2021/05/17 08:00:30;;;;;;;12.68;6.72;;;;;;;11.16;71.86;99145.34;8737399;32;20395;-73
2021/05/17 08:05:33;;;;;;;8.23;6.47;;;;;;;11.42;72.59;99144.47;8736381;32;20409;-73
2021/05/17 08:10:35;;;;;;;10.65;8.25;;;;;;;10.75;72.90;99152.19;8735270;32;20587;-73
2021/05/17 08:15:39;;;;;;;10.85;7.07;;;;;;;10.00;76.31;99162.38;8734023;32;20169;-73
2021/05/17 08:20:42;;;;;;;10.98;7.38;;;;;;;10.21;76.59;99159.44;8739047;32;20464;-73
2021/05/17 08:25:47;;;;;;;8.40;6.45;;;;;;;10.94;78.52;99157.41;8714503;32;20181;-73
2021/05/17 08:30:55;;;;;;;9.13;6.22;;;;;;;11.39;77.49;99156.38;8741361;32;20162;-73
2021/05/17 08:35:58;;;;;;;8.68;5.10;;;;;;;11.01;75.90;99160.28;8740931;32;20165;-73
2021/05/17 08:41:00;;;;;;;6.50;4.82;;;;;;;11.57;72.80;99150.91;8745495;32;20255;-72
2021/05/17 08:46:04;;;;;;;7.38;5.07;;;;;;;12.47;71.61;99140.44;8746590;32;21931;-72
2021/05/17 08:51:07;;;;;;;9.40;4.97;;;;;;;12.40;70.13;99147.53;8719038;32;20514;-72
2021/05/17 08:56:10;;;;;;;7.25;5.03;;;;;;;12.32;70.27;99145.66;8747224;32;20415;-72
2021/05/17 09:01:14;;;;;;;4.70;4.07;;;;;;;13.61;67.91;99141.34;8722451;32;20415;-71
2021/05/17 09:06:39;;;;;;;5.38;4.00;;;;;;;13.69;69.84;99144.84;8748188;32;20424;-71
2021/05/17 09:11:49;;;;;;;9.38;5.10;;;;;;;14.29;65.36;99143.38;8748640;32;20408;-71
2021/05/17 09:17:03;;;;;;;5.65;3.85;;;;;;;14.69;62.00;99149.53;8682907;32;20153;-72
2021/05/17 09:22:12;;;;;;;5.50;3.22;;;;;;;14.12;62.67;99142.63;8689869;32;20649;-71
2021/05/17 09:27:19;;;;;;;3.03;2.70;;;;;;;11.68;68.97;99214.34;8667753;32;20973;-72
2021/05/17 09:32:25;;;;;;;1.40;1.30;;;;;;;8.51;85.22;99179.13;8693574;32;20150;-71
2021/05/17 09:37:43;;;;;;;1.95;1.30;;;;;;;8.43;84.20;99187.81;8686253;32;20163;-70
2021/05/17 09:43:00;;;;;;;1.00;0.90;;;;;;;8.74;85.04;99188.53;8681581;32;20421;-70
2021/05/17 09:48:19;;;;;;;0.93;0.93;;;;;;;9.77;85.96;99176.16;8680145;32;20147;-70
2021/05/17 09:53:23;;;;;;;3.55;1.20;;;;;;;11.66;88.94;99167.94;8679157;32;21982;-71
2021/05/17 09:58:37;;;;;;;2.15;1.95;;;;;;;12.36;85.20;99165.84;8674332;32;20323;-71
2021/05/17 10:03:45;;;;;;;2.78;2.28;;;;;;;11.66;81.77;99160.72;8675214;32;20410;-70
2021/05/17 10:08:48;;;;;;;3.70;2.92;;;;;;;10.42;85.44;99170.69;8674692;32;20214;-71
2021/05/17 10:13:52;;;;;;;4.35;2.47;;;;;;;10.36;85.06;99156.03;8676189;32;20403;-70
2021/05/17 10:18:56;;;;;;;3.53;2.83;;;;;;;11.41;85.61;99165.13;8680824;32;20487;-71
2021/05/17 10:24:01;;;;;;;4.78;2.28;;;;;;;10.72;82.46;99160.56;8678866;32;20601;-71
2021/05/17 10:29:05;;;;;;;5.22;3.00;;;;;;;11.08;84.86;99163.19;8674856;32;20449;-71
2021/05/17 10:34:10;;;;;;;5.43;3.05;;;;;;;12.57;87.02;99157.28;8676004;32;20153;-70
2021/05/17 10:39:13;;;;;;;5.00;3.10;;;;;;;13.16;83.42;99150.88;8672446;32;20682;-71
2021/05/17 10:44:33;;;;;;;5.13;3.95;;;;;;;12.92;81.95;99143.66;8663188;32;20528;-70
2021/05/17 10:49:37;;;;;;;5.70;3.20;;;;;;;12.99;85.52;99150.88;8661784;32;20142;-70
2021/05/17 10:54:42;;;;;;;3.65;3.25;;;;;;;14.07;80.25;99144.16;8662397;32;20632;-71
2021/05/17 11:05:13;;;;;;;6.35;3.58;;;;;;;14.94;80.54;99138.50;8663773;32;20398;-71
2021/05/17 11:10:21;;;;;;;3.83;3.50;;;;;;;16.22;77.95;99137.41;8670607;32;20419;-71
2021/05/17 11:15:44;;;;;;;3.92;3.55;;;;;;;15.35;73.13;99133.56;8678906;32;20437;-70
2021/05/17 11:20:51;;;;;;;5.25;3.60;;;;;;;15.50;71.23;99130.03;8668994;32;20142;-71
2021/05/17 11:26:00;;;;;;;6.90;3.42;;;;;;;14.54;75.77;99127.88;8681062;32;20651;-70
2021/05/17 11:31:06;;;;;;;4.68;3.50;;;;;;;14.37;73.04;99131.66;8681193;32;20748;-71
2021/05/17 11:36:19;;;;;;;3.65;3.33;;;;;;;14.35;76.01;99128.31;8677353;32;20185;-70
2021/05/17 11:41:22;;;;;;;7.75;3.75;;;;;;;14.11;68.90;99137.41;8672047;32;20405;-71
2021/05/17 11:46:25;;;;;;;5.20;3.40;;;;;;;15.32;62.89;99130.38;8660495;32;20173;-70
2021/05/17 11:51:29;;;;;;;5.18;3.47;;;;;;;17.03;62.93;99119.00;8662128;32;20229;-71
2021/05/17 11:56:38;;;;;;;5.72;3.60;;;;;;;17.51;64.36;99124.59;8661994;32;20454;-71
2021/05/17 12:01:43;;;;;;;5.22;3.65;;;;;;;18.39;60.37;99118.47;8661451;32;20157;-71
2021/05/17 12:06:50;;;;;;;3.47;2.95;;;;;;;16.59;56.65;99122.78;8662985;32;20443;-71
2021/05/17 12:11:53;;;;;;;4.63;3.10;;;;;;;16.17;58.29;99118.16;8661721;32;21146;-71
2021/05/17 12:17:07;;;;;;;4.53;3.72;;;;;;;16.51;58.99;99118.38;8674297;32;20533;-72
2021/05/17 12:22:16;;;;;;;7.07;3.60;;;;;;;17.45;52.76;99122.66;8674523;32;20151;-71
2021/05/17 12:27:20;;;;;;;4.47;2.88;;;;;;;16.14;52.29;99114.81;8674814;32;20193;-71
2021/05/17 12:32:25;;;;;;;4.50;3.05;;;;;;;15.10;54.22;99127.53;8674940;32;20483;-72
2021/05/17 12:37:32;;;;;;;6.15;3.03;;;;;;;13.42;66.91;99134.50;8674359;32;20430;-72
2021/05/17 12:42:34;;;;;;;3.35;2.80;;;;;;;13.12;67.65;99122.56;8654750;33;20177;-71
2021/05/17 12:47:38;;;;;;;6.38;2.92;;;;;;;13.17;62.70;99123.75;8674867;33;20999;-71
2021/05/17 12:52:42;;;;;;;2.95;2.60;;;;;;;13.88;62.28;99127.41;8671193;33;20139;-71
2021/05/17 12:57:51;;;;;;;2.45;1.80;;;;;;;14.53;57.79;99131.56;8660907;33;20517;-71
2021/05/17 13:03:06;;;;;;;2.40;1.48;;;;;;;14.40;56.85;99142.16;8660164;33;20192;-71
2021/05/17 13:08:09;;;;;;;2.28;1.70;;;;;;;14.60;55.52;99131.72;8656656;33;21007;-71
2021/05/17 13:13:12;;;;;;;2.05;1.85;;;;;;;15.23;55.47;99127.75;8654471;32;20126;-71
2021/05/17 13:18:15;;;;;;;3.47;1.85;;;;;;;15.66;54.76;99119.88;8651953;32;20469;-71
2021/05/17 13:23:42;;;;;;;2.17;1.85;;;;;;;16.03;53.73;99117.19;8653366;32;20237;-71
2021/05/17 13:34:10;;;;;;;1.60;1.50;;;;;;;16.87;49.51;99130.16;8653280;32;21128;-71
2021/05/17 13:39:15;;;;;;;1.63;1.30;;;;;;;17.92;45.94;99130.00;8653083;32;20427;-71
2021/05/17 13:44:18;;;;;;;1.33;1.23;;;;;;;17.50;45.73;99128.34;8656434;32;20403;-71
2021/05/17 13:49:23;;;;;;;1.83;1.27;;;;;;;15.55;50.61;99139.28;8654637;32;20880;-70
2021/05/17 13:54:27;;;;;;;1.73;1.40;;;;;;;15.09;51.24;99152.06;8664571;32;20185;-71
2021/05/17 13:59:30;;;;;;;4.10;1.10;;;;;;;13.74;55.25;99190.22;8662024;32;20141;-71
2021/05/17 14:04:33;;;;;;;2.20;1.38;;;;;;;10.31;70.76;99233.53;8678718;32;20152;-73
2021/05/17 14:09:36;;;;;;;1.40;1.10;;;;;;;8.76;78.00;99224.06;8723828;32;20257;-72
2021/05/17 14:14:39;;;;;;;1.75;1.30;;;;;;;8.97;79.39;99209.69;8722361;32;20898;-71
2021/05/17 14:19:41;;;;;;;3.15;1.33;;;;;;;9.79;80.58;99210.84;8694214;32;20192;-71
2021/05/17 14:24:45;;;;;;;1.88;1.40;;;;;;;10.61;80.19;99215.34;8719615;32;20400;-70
2021/05/17 14:29:48;;;;;;;2.95;1.73;;;;;;;11.49;80.81;99213.56;8723807;32;20997;-70
2021/05/17 14:34:50;;;;;;;3.38;1.83;;;;;;;12.75;82.05;99213.72;8722411;32;20565;-71
2021/05/17 14:39:56;;;;;;;1.77;1.45;;;;;;;14.86;77.22;99216.97;8724712;32;20464;-71
2021/05/17 14:44:59;;;;;;;2.28;1.50;;;;;;;15.75;74.92;99211.81;8727469;32;21050;-70
2021/05/17 14:50:02;;;;;;;2.88;1.40;;;;;;;15.89;71.36;99219.91;8729111;32;20213;-71
2021/05/17 14:55:08;;;;;;;2.60;1.70;;;;;;;15.32;68.49;99216.94;8728117;32;20244;-71
2021/05/17 15:00:15;;;;;;;3.05;1.83;;;;;;;14.58;71.12;99215.63;8727296;32;20434;-71
2021/05/17 15:05:19;;;;;;;4.05;1.67;;;;;;;14.61;73.57;99222.56;8718809;32;20189;-71
2021/05/17 15:10:24;;;;;;;2.22;1.98;;;;;;;14.58;72.60;99226.44;8712401;32;20876;-71
2021/05/17 15:15:27;;;;;;;2.42;1.73;;;;;;;13.70;70.07;99235.56;8711323;32;20543;-71
2021/05/17 15:20:31;;;;;;;2.35;1.63;;;;;;;13.94;71.52;99241.94;8712257;32;20149;-71
2021/05/17 15:25:35;;;;;;;3.22;2.58;;;;;;;15.76;73.11;99243.25;8691829;32;20710;-71
2021/05/17 15:30:38;;;;;;;3.80;2.70;;;;;;;15.47;71.50;99240.34;8662025;32;21411;-71
2021/05/17 15:35:41;;;;;;;2.30;2.10;;;;;;;14.37;67.89;99239.69;8692637;32;20741;-71
2021/05/17 15:40:45;;;;;;;3.30;2.45;;;;;;;13.89;70.22;99247.00;8673117;32;20216;-71
2021/05/17 15:45:49;;;;;;;3.45;2.88;;;;;;;13.55;70.12;99242.72;8671225;32;20434;-71
2021/05/17 15:50:51;;;;;;;2.55;2.35;;;;;;;13.63;70.29;99248.09;8676697;32;20182;-71
2021/05/17 15:55:55;;;;;;;3.28;2.85;;;;;;;13.79;71.35;99255.28;8686580;32;20419;-71
2021/05/17 16:00:58;;;;;;;4.40;2.50;;;;;;;14.67;67.45;99251.56;8683666;32;20193;-71
2021/05/17 16:06:00;;;;;;;3.33;2.70;;;;;;;14.61;71.15;99257.69;8684034;32;20599;-71
2021/05/17 16:11:08;;;;;;;3.95;2.25;;;;;;;14.09;71.55;99244.72;8671824;32;20505;-71
2021/05/17 16:16:17;;;;;;;2.95;2.75;;;;;;;13.99;73.40;99253.06;8672056;33;20814;-71
2021/05/17 16:21:24;;;;;;;3.22;2.28;;;;;;;13.64;71.52;99244.38;8676348;33;20398;-71
2021/05/17 16:26:29;;;;;;;6.70;1.90;;;;;;;12.57;70.14;99281.19;8676700;33;20424;-70
2021/05/17 16:31:32;;;;;;;2.92;1.70;;;;;;;12.12;70.95;99273.41;8663221;33;20410;-70
2021/05/17 16:36:37;;;;;;;1.75;1.63;;;;;;;12.25;71.89;99273.81;8661878;33;20225;-70
2021/05/17 16:42:00;;;;;;;3.63;2.17;;;;;;;12.58;70.23;99269.41;8660239;33;20372;-71
2021/05/17 16:47:03;;;;;;;2.60;1.90;;;;;;;12.51;73.56;99270.25;8674483;33;20400;-70
2021/05/17 16:52:06;;;;;;;4.13;2.10;;;;;;;12.19;72.85;99277.16;8673973;33;20402;-71
2021/05/17 16:57:10;;;;;;;2.67;2.47;;;;;;;11.94;72.91;99284.28;8674052;33;20407;-72
2021/05/17 17:02:13;;;;;;;3.97;2.63;;;;;;;12.11;73.91;99291.41;8714221;32;20165;-70
2021/05/17 17:07:17;;;;;;;2.55;2.28;;;;;;;12.34;73.18;99289.03;8728835;32;20338;-71
2021/05/17 17:12:21;;;;;;;3.30;2.50;;;;;;;13.81;69.09;99291.03;8728126;32;20411;-71
2021/05/17 17:17:24;;;;;;;3.53;2.67;;;;;;;12.95;69.02;99303.19;8719672;32;20574;-71
2021/05/17 17:22:26;;;;;;;2.33;2.13;;;;;;;12.88;69.22;99307.53;8715899;32;20232;-71
2021/05/17 17:27:30;;;;;;;2.45;2.25;;;;;;;12.55;68.19;99307.44;8720887;32;20432;-72
2021/05/17 17:32:47;;;;;;;2.30;2.10;;;;;;;12.46;69.83;99313.81;8718578;32;21556;-72
2021/05/17 17:37:49;;;;;;;2.70;2.50;;;;;;;12.36;69.03;99327.41;8717696;32;20583;-72
2021/05/17 17:42:53;;;;;;;3.97;2.55;;;;;;;12.28;69.41;99331.88;8719163;32;20447;-71
2021/05/17 17:47:56;;;;;;;3.15;2.95;;;;;;;12.27;69.39;99338.28;8692332;32;20690;-72
2021/05/17 17:52:58;;;;;;;3.50;3.20;;;;;;;12.15;69.42;99348.50;8716765;32;20634;-72
2021/05/17 17:58:02;;;;;;;4.22;3.35;;;;;;;12.07;69.49;99356.53;8718884;32;21026;-72
2021/05/17 18:03:07;;;;;;;4.00;3.60;;;;;;;12.26;70.38;99367.06;8720478;32;20613;-72
2021/05/17 18:08:12;;;;;;;5.18;4.18;;;;;;;12.12;69.25;99370.31;8718860;32;20146;-72
2021/05/17 18:13:15;;;;;;;6.97;4.65;;;;;;;12.08;69.53;99377.88;8718080;32;20177;-72
2021/05/17 18:18:19;;;;;;;4.60;4.20;;;;;;;12.06;69.59;99385.25;8716447;32;20872;-72
2021/05/17 18:23:21;;;;;;;6.03;4.53;;;;;;;12.05;69.91;99394.34;8713443;32;20157;-72
2021/05/17 18:28:25;;;;;;;5.30;4.80;;;;;;;11.83;70.84;99394.88;8714939;32;20271;-72
2021/05/17 18:33:34;;;;;;;8.00;5.18;;;;;;;11.59;72.76;99392.81;8714152;32;20537;-72
2021/05/17 18:38:37;;;;;;;5.88;5.10;;;;;;;11.75;72.44;99409.09;8714360;32;20407;-71
2021/05/17 18:43:47;;;;;;;6.13;5.53;;;;;;;11.64;73.06;99403.94;8720123;32;21493;-72
2021/05/17 18:48:53;;;;;;;6.43;5.75;;;;;;;11.54;72.68;99413.94;8721787;32;20339;-71
2021/05/17 18:53:58;;;;;;;8.68;5.65;;;;;;;11.43;73.36;99420.41;8720681;32;20141;-71
2021/05/17 18:59:03;;;;;;;9.25;7.20;;;;;;;11.30;73.79;99426.16;8722283;32;20405;-72
2021/05/17 19:04:07;;;;;;;8.65;6.82;;;;;;;11.45;73.53;99421.94;8722024;32;20437;-71
2021/05/17 19:09:11;;;;;;;11.05;7.88;;;;;;;11.33;74.08;99436.63;8724262;32;20185;-72
2021/05/17 19:14:14;;;;;;;12.65;9.05;;;;;;;11.35;74.21;99452.56;8722519;32;21417;-71
2021/05/17 19:19:17;;;;;;;12.85;8.10;;;;;;;11.09;75.31;99474.78;8717132;32;20417;-72
2021/05/17 19:24:22;;;;;;;11.43;7.18;;;;;;;11.10;75.25;99473.78;8685547;32;20415;-72
2021/05/17 19:29:27;;;;;;;10.32;6.70;;;;;;;10.96;75.44;99479.66;8716431;32;20441;-72
2021/05/17 19:34:29;;;;;;;7.47;5.65;;;;;;;11.01;74.47;99485.44;8714086;32;20156;-72
2021/05/17 19:39:34;;;;;;;8.20;5.65;;;;;;;10.93;74.36;99493.38;8717629;32;20442;-72
2021/05/17 19:44:38;;;;;;;8.82;5.57;;;;;;;10.81;74.17;99493.56;8713657;32;21436;-71
2021/05/17 19:49:40;;;;;;;8.43;4.88;;;;;;;10.79;74.92;99506.31;8713825;32;20185;-72
2021/05/17 19:54:43;;;;;;;6.80;4.20;;;;;;;10.03;79.07;99517.06;8720102;32;20350;-73
2021/05/17 19:59:47;;;;;;;6.22;4.80;;;;;;;9.99;80.95;99528.22;8725857;32;21164;-71
2021/05/17 20:04:49;;;;;;;7.22;4.68;;;;;;;9.82;80.95;99527.91;8736553;32;20237;-72
2021/05/17 20:09:52;;;;;;;7.20;4.85;;;;;;;9.78;80.01;99523.78;8691246;32;20176;-73
2021/05/17 20:14:56;;;;;;;8.88;4.60;;;;;;;10.06;79.97;99537.38;8721213;32;20440;-72
2021/05/17 20:19:59;;;;;;;7.55;4.68;;;;;;;9.83;79.52;99548.38;8724687;32;20536;-72
2021/05/17 20:25:02;;;;;;;8.63;5.38;;;;;;;9.59;80.88;99564.00;8720060;32;20177;-72
2021/05/17 20:30:10;;;;;;;8.95;5.32;;;;;;;9.87;79.98;99562.38;8722178;32;21143;-72
2021/05/17 20:40:38;;;;;;;11.25;6.75;;;;;;;9.82;79.84;99567.28;8718441;32;20185;-72
2021/05/17 20:45:42;;;;;;;9.02;5.80;;;;;;;10.06;79.38;99580.31;8717315;32;20779;-71
2021/05/17 20:50:44;;;;;;;12.85;6.97;;;;;;;9.84;79.78;99578.72;8717525;32;20185;-71
2021/05/17 20:55:47;;;;;;;8.68;5.72;;;;;;;9.90;79.88;99584.41;8715601;32;20429;-71
2021/05/17 21:00:51;;;;;;;9.70;6.20;;;;;;;9.87;80.25;99586.50;8715413;32;20463;-72
2021/05/17 21:05:58;;;;;;;10.55;6.18;;;;;;;9.98;79.86;99596.28;8717500;32;21809;-72
2021/05/17 21:11:01;;;;;;;11.60;6.80;;;;;;;10.07;79.61;99606.19;8719845;32;20173;-72
2021/05/17 21:16:05;;;;;;;9.73;6.53;;;;;;;9.80;79.80;99613.03;8716940;32;20436;-71
2021/05/17 21:21:08;;;;;;;11.23;6.55;;;;;;;9.96;79.12;99611.69;8715199;32;20415;-71
2021/05/17 21:26:11;;;;;;;8.40;5.45;;;;;;;9.62;79.58;99620.03;8714194;32;20567;-72
2021/05/17 21:31:17;;;;;;;10.07;6.30;;;;;;;9.91;79.01;99628.19;8714139;32;20185;-71
2021/05/17 21:36:20;;;;;;;10.90;6.63;;;;;;;9.87;79.30;99632.13;8714896;32;20259;-72
2021/05/17 21:41:22;;;;;;;15.60;6.70;;;;;;;9.90;78.76;99642.56;8718563;32;20149;-72
2021/05/17 21:46:26;;;;;;;9.60;5.95;;;;;;;9.96;79.20;99638.50;8713394;32;20449;-72
2021/05/17 21:51:35;;;;;;;8.75;6.05;;;;;;;9.87;79.09;99649.09;8716643;32;20418;-72
2021/05/17 21:56:41;;;;;;;12.25;6.57;;;;;;;9.97;78.01;99651.78;8724820;32;21012;-72
2021/05/17 22:01:44;;;;;;;11.05;6.00;;;;;;;10.11;78.49;99670.16;8695495;32;20315;-72
2021/05/17 22:06:48;;;;;;;10.70;5.78;;;;;;;10.04;78.38;99669.03;8719288;32;20426;-72
2021/05/17 22:11:51;;;;;;;8.98;6.28;;;;;;;10.03;77.93;99672.66;8722265;32;20348;-72
2021/05/17 22:16:56;;;;;;;7.90;5.60;;;;;;;9.75;76.90;99679.63;8740042;32;20419;-72
2021/05/17 22:21:58;;;;;;;8.40;5.28;;;;;;;9.89;77.22;99687.31;8742393;32;20582;-72
2021/05/17 22:27:01;;;;;;;9.45;5.57;;;;;;;9.90;77.40;99693.53;8743414;32;20489;-72
2021/05/17 22:32:05;;;;;;;8.85;5.63;;;;;;;9.70;77.54;99712.22;8740421;32;20414;-72
2021/05/17 22:37:09;;;;;;;8.93;5.40;;;;;;;9.45;77.05;99704.63;8739338;32;20455;-72
2021/05/17 22:42:12;;;;;;;7.75;5.25;;;;;;;9.20;77.55;99713.94;8691629;32;20411;-72
2021/05/17 22:47:15;;;;;;;8.20;5.07;;;;;;;9.76;76.90;99716.19;8682888;33;20190;-72
2021/05/17 22:52:19;;;;;;;8.07;5.32;;;;;;;9.46;76.28;99722.41;8683635;33;20945;-72
2021/05/17 22:57:21;;;;;;;10.05;5.15;;;;;;;9.89;77.10;99719.50;8686165;33;20178;-72
2021/05/17 23:02:25;;;;;;;9.52;5.28;;;;;;;9.71;77.43;99730.03;8681015;33;20277;-72
2021/05/17 23:07:28;;;;;;;12.85;7.75;;;;;;;9.29;79.04;99732.75;8679257;33;20436;-72
2021/05/17 23:12:31;;;;;;;11.20;6.82;;;;;;;9.34;79.61;99747.59;8678162;33;20448;-72
2021/05/17 23:17:34;;;;;;;13.43;7.13;;;;;;;9.03;80.90;99745.72;8677213;33;20153;-71
2021/05/17 23:22:40;;;;;;;12.65;7.43;;;;;;;9.38;80.24;99746.34;8675507;33;20792;-72
2021/05/17 23:33:07;;;;;;;13.10;6.80;;;;;;;9.47;80.40;99759.81;8739985;32;20456;-72
2021/05/17 23:38:11;;;;;;;9.57;6.50;;;;;;;9.48;80.07;99758.81;8739866;32;20402;-72
2021/05/17 23:43:14;;;;;;;10.70;6.85;;;;;;;9.51;80.61;99761.22;8741088;32;20189;-72
2021/05/17 23:48:19;;;;;;;11.73;6.97;;;;;;;9.51;79.79;99761.22;8736500;32;20153;-72
2021/05/17 23:53:22;;;;;;;11.65;6.97;;;;;;;9.45;79.34;99768.97;8725133;32;20156;-72
2021/05/17 23:58:25;;;;;;;14.10;6.70;;;;;;;9.52;79.62;99783.56;8735333;32;20415;-72
